Cattleya Ace — ZGBV6 — position and weather

sailwx.info

Track history (hours):
 
Tides and Currents Weather Stations Pressure Air Temp Water Temp Dewpoint Dewpoint Depression Visibility Wind Speed Wind Dir Waves Ship Positions

Cattleya Ace

Last reported at 2018-Feb-21 05:30 UTC. Time now 2018-Feb-21 05:56 UTC.
Position N 38°06' W 009°56'.

Length 199 m; draft 9.5 m.

Type: Cargo ship. MMSI: 319885000.

Date/timePositionNaut miles runAvg speedWind from/ knotsBaromVisibWave heightAir tempDewpointWater temp
2018-Feb-21 05:30N 38°06' W 009°56'714.9
2018-Feb-21 05:00N 38°13' W 009°59'815.1
2018-Feb-21 04:31N 38°20' W 010°01'815.2
2018-Feb-21 04:00N 38°28' W 010°03'815.2
2018-Feb-21 03:30N 38°35' W 010°05'714.7
2018-Feb-21 03:00N 38°42' W 010°07'714.8
2018-Feb-21 02:31N 38°50' W 010°07'714.6
2018-Feb-21 02:00N 38°57' W 010°07'714.8
2018-Feb-21 01:30N 39°05' W 010°07'714.8
2018-Feb-21 01:00N 39°12' W 010°07'714.8
2018-Feb-21 00:30N 39°19' W 010°07'714.5
2018-Feb-21 00:00N 39°27' W 010°07'714.4
2018-Feb-20 23:31N 39°34' W 010°07'714.6
2018-Feb-20 23:00N 39°41' W 010°07'714.5
2018-Feb-20 22:30N 39°48' W 010°08'714.6
2018-Feb-20 22:01N 39°56' W 010°08'714.9
2018-Feb-20 21:31N 40°03' W 010°07'714.7
2018-Feb-20 21:00N 40°11' W 010°07'28011.5
2018-Feb-19 20:38N 43°51' W 006°14'215.6
2018-Feb-19 20:29N 43°51' W 006°11'815.8
2018-Feb-19 20:00N 43°50' W 005°60'815.6
2018-Feb-19 19:30N 43°50' W 005°49'815.6
2018-Feb-19 19:00N 43°48' W 005°39'815.6
2018-Feb-19 18:30N 43°47' W 005°28'815.6
2018-Feb-19 18:00N 43°45' W 005°18'815.5
2018-Feb-19 17:30N 43°44' W 005°07'815.4
2018-Feb-19 17:00N 43°42' W 004°56'5314.5
2018-Feb-19 13:20N 43°28' W 003°46'3 0.1
2018-Feb-18 09:13N 43°31' W 003°45'2 9.1
2018-Feb-18 09:00N 43°33' W 003°46'5 9.1
2018-Feb-18 08:30N 43°37' W 003°49'611.3
2018-Feb-18 08:00N 43°42' W 003°51'22714.7
2018-Feb-17 16:30N 47°17' W 005°37'1314.5
2018-Feb-17 15:36N 47°30' W 005°42'314.1
2018-Feb-17 15:22N 47°33' W 005°43'2613.5
2018-Feb-17 13:25N 47°58' W 005°56'1113.8
2018-Feb-17 12:36N 48°08' W 006°01'814.3
2018-Feb-17 12:05N 48°16' W 006°04'414.4
2018-Feb-17 11:50N 48°19' W 006°05'12014.7
2018-Feb-17 03:40N 49°40' W 003°48'715.9
2018-Feb-17 03:12N 49°43' W 003°38'316.4
2018-Feb-17 03:00N 49°45' W 003°34'817.0
2018-Feb-17 02:31N 49°49' W 003°23'917.6
2018-Feb-17 02:01N 49°54' W 003°11'917.9
2018-Feb-17 01:31N 49°58' W 002°59'917.9
2018-Feb-17 01:00N 50°00' W 002°45'917.5
2018-Feb-17 00:30N 50°03' W 002°32'1916.2
2018-Feb-16 23:20N 50°10' W 002°05'515.0
2018-Feb-16 23:00N 50°12' W 001°58'714.4
2018-Feb-16 22:30N 50°16' W 001°48'713.9
2018-Feb-16 22:00N 50°19' W 001°39'713.5
2018-Feb-16 21:30N 50°22' W 001°29'713.1
2018-Feb-16 20:58N 50°25' W 001°19'612.8
2018-Feb-16 20:30N 50°28' W 001°11'612.4
2018-Feb-16 20:00N 50°31' W 001°03'612.8
2018-Feb-16 19:30N 50°37' W 000°57'510.4
2018-Feb-16 19:00N 50°42' W 000°57'714.4
2018-Feb-16 18:30N 50°45' W 001°07'815.2
2018-Feb-16 18:01N 50°47' W 001°19'4 8.0
2018-Feb-16 17:30N 50°51' W 001°20'3 6.9
2018-Feb-16 17:01N 50°53' W 001°24'0 0.5
2018-Feb-16 16:29N 50°53' W 001°24'0 0.0
2018-Feb-16 15:59N 50°53' W 001°24'0 0.0
2018-Feb-16 15:29N 50°53' W 001°24'0 0.0
2018-Feb-16 14:59N 50°53' W 001°24'0 0.0
2018-Feb-16 14:29N 50°53' W 001°24'0 0.0
2018-Feb-16 13:59N 50°53' W 001°24'0 0.0
2018-Feb-16 13:29N 50°53' W 001°24'0 0.0
2018-Feb-16 12:56N 50°53' W 001°24'0 0.0
2018-Feb-16 12:29N 50°53' W 001°24'0 0.0
2018-Feb-16 11:59N 50°53' W 001°24'0 0.0
2018-Feb-16 11:29N 50°53' W 001°24'0 0.0
2018-Feb-16 10:59N 50°53' W 001°24'0 0.0
2018-Feb-16 10:29N 50°53' W 001°24'0 0.0
2018-Feb-16 09:59N 50°53' W 001°24'0 0.0
2018-Feb-16 09:29N 50°53' W 001°24'0 0.0
2018-Feb-16 08:59N 50°53' W 001°24'0 0.0
2018-Feb-16 08:29N 50°53' W 001°24'0 0.0
2018-Feb-16 07:59N 50°53' W 001°24'0 0.0
2018-Feb-16 07:29N 50°53' W 001°24'0 0.0
2018-Feb-16 06:59N 50°53' W 001°24'0 0.0
2018-Feb-16 06:29N 50°53' W 001°24'0 0.0
2018-Feb-16 05:59N 50°53' W 001°24'0 0.0
2018-Feb-16 05:29N 50°53' W 001°24'0 0.0
2018-Feb-16 04:59N 50°53' W 001°24'0 0.6
2018-Feb-16 04:30N 50°53' W 001°24'3 5.5
2018-Feb-16 04:01N 50°51' W 001°21'4 7.5
2018-Feb-16 03:31N 50°48' W 001°18'4 8.5
2018-Feb-16 03:01N 50°46' W 001°12'714.2
2018-Feb-16 02:31N 50°43' W 001°02'611.1
2018-Feb-16 02:00N 50°40' W 000°55'3 5.5
2018-Feb-16 01:30N 50°37' W 000°54'4 7.4
2018-Feb-16 01:00N 50°34' W 000°51'1 2.4
2018-Feb-16 00:30N 50°35' W 000°49'3 5.7
2018-Feb-16 00:00N 50°35' W 000°44'4 7.4
2018-Feb-15 23:30N 50°35' W 000°39'3 6.6
2018-Feb-15 23:00N 50°35' W 000°33'4 7.8
2018-Feb-15 22:31N 50°34' W 000°27'3 6.6
2018-Feb-15 22:00N 50°34' W 000°22'4 7.7
2018-Feb-15 21:30N 50°34' W 000°16'4 9.1
2018-Feb-15 21:00N 50°33' W 000°09'4 8.5
2018-Feb-15 20:30N 50°33' W 000°02'4 8.7
2018-Feb-15 20:00N 50°34' E 000°04'4 8.2
2018-Feb-15 19:30N 50°35' E 000°10'4 8.6
2018-Feb-15 19:00N 50°35' E 000°17'4 9.0
2018-Feb-15 18:31N 50°37' E 000°24'4 8.9
2018-Feb-15 18:00N 50°38' E 000°31'5 9.3
2018-Feb-15 17:30N 50°39' E 000°38'4 7.4
2018-Feb-15 17:00N 50°41' E 000°43'5 9.4
2018-Feb-15 16:30N 50°43' E 000°49'4 7.4
2018-Feb-15 16:00N 50°45' E 000°54'4 8.9
2018-Feb-15 15:30N 50°48' E 000°60'5 9.6
2018-Feb-15 15:00N 50°50' E 001°06'5 9.8
2018-Feb-15 14:30N 50°53' E 001°13'611.7
2018-Feb-15 14:00N 50°56' E 001°20'611.2
2018-Feb-15 13:30N 51°01' E 001°26'510.4
2018-Feb-15 13:00N 51°04' E 001°33'5 9.8
2018-Feb-15 12:31N 51°07' E 001°39'510.2
2018-Feb-15 12:00N 51°11' E 001°44'510.1
2018-Feb-15 11:30N 51°15' E 001°49'611.1
2018-Feb-15 11:00N 51°19' E 001°54'612.0
2018-Feb-15 10:30N 51°24' E 001°59'611.9
2018-Feb-15 10:01N 51°23' E 002°09'713.0
2018-Feb-15 09:30N 51°21' E 002°19'816.2
2018-Feb-15 09:00N 51°23' E 002°31'713.9
2018-Feb-15 08:29N 51°23' E 002°43'612.9
2018-Feb-15 08:00N 51°23' E 002°53'815.8
2018-Feb-15 07:30N 51°24' E 003°05'816.2
2018-Feb-15 07:00N 51°25' E 003°18'816.5
2018-Feb-15 06:30N 51°25' E 003°31'510.1
2018-Feb-15 06:00N 51°27' E 003°39'714.6
2018-Feb-15 05:30N 51°21' E 003°47'714.0
2018-Feb-15 05:00N 51°24' E 003°57'4 8.4
2018-Feb-15 04:30N 51°23' E 004°03'611.9
2018-Feb-15 04:01N 51°23' E 004°13'510.6
2018-Feb-15 03:30N 51°18' E 004°16'2 3.3
2018-Feb-15 03:00N 51°17' E 004°15'0 0.0
2018-Feb-15 02:30N 51°17' E 004°15'0 0.8
2018-Feb-15 02:00N 51°16' E 004°15'1 1.2
2018-Feb-15 01:29N 51°16' E 004°14'0 0.0
2018-Feb-15 00:59N 51°16' E 004°14'0 0.0
2018-Feb-15 00:29N 51°16' E 004°14'0 0.0
2018-Feb-14 23:59N 51°16' E 004°14'0 0.0
2018-Feb-14 23:29N 51°16' E 004°14'0 0.0
2018-Feb-14 22:59N 51°16' E 004°14'0 0.0
2018-Feb-14 22:29N 51°16' E 004°14'0 0.0
2018-Feb-14 21:59N 51°16' E 004°14'0 0.0
2018-Feb-14 21:26N 51°16' E 004°14'0 0.0
2018-Feb-14 20:59N 51°16' E 004°14'0 0.0
2018-Feb-14 20:29N 51°16' E 004°14'0 0.0
2018-Feb-14 19:56N 51°16' E 004°14'0 0.0
2018-Feb-14 19:29N 51°16' E 004°14'0 0.0
2018-Feb-14 18:59N 51°16' E 004°14'0 0.0
2018-Feb-14 18:29N 51°16' E 004°14'0 0.0
2018-Feb-14 17:59N 51°16' E 004°14'0 0.0
2018-Feb-14 17:29N 51°16' E 004°14'0 0.0
2018-Feb-14 16:59N 51°16' E 004°14'0 0.0
2018-Feb-14 16:29N 51°16' E 004°14'0 0.0
2018-Feb-14 15:59N 51°16' E 004°14'0 0.0
2018-Feb-14 15:26N 51°16' E 004°14'0 0.0
2018-Feb-14 14:59N 51°16' E 004°14'0 0.0
2018-Feb-14 14:29N 51°16' E 004°14'0 0.0
2018-Feb-14 13:59N 51°16' E 004°14'0 0.0
2018-Feb-14 13:29N 51°16' E 004°14'0 0.0
2018-Feb-14 12:59N 51°16' E 004°14'0 0.0
2018-Feb-14 12:29N 51°16' E 004°14'0 0.0
2018-Feb-14 11:59N 51°16' E 004°14'0 0.0
2018-Feb-14 11:29N 51°16' E 004°14'0 0.0
2018-Feb-14 10:59N 51°16' E 004°14'0 0.0
2018-Feb-14 10:29N 51°16' E 004°14'0 0.0
2018-Feb-14 09:59N 51°16' E 004°14'0 0.0
2018-Feb-14 09:29N 51°16' E 004°14'0 0.0
2018-Feb-14 08:56N 51°16' E 004°14'0 0.0
2018-Feb-14 08:29N 51°16' E 004°14'0 0.0
2018-Feb-14 07:59N 51°16' E 004°14'0 0.0
2018-Feb-14 07:29N 51°16' E 004°14'0 0.0
2018-Feb-14 06:59N 51°16' E 004°14'0 0.0
2018-Feb-14 06:29N 51°16' E 004°14'0 0.0
2018-Feb-14 05:59N 51°16' E 004°14'0 0.0
2018-Feb-14 05:29N 51°16' E 004°14'0 0.0
2018-Feb-14 04:59N 51°16' E 004°14'0 0.0
2018-Feb-14 04:29N 51°16' E 004°14'0 0.0
2018-Feb-14 03:59N 51°16' E 004°14'0 0.0
2018-Feb-14 03:29N 51°16' E 004°14'1 2.0
2018-Feb-14 03:00N 51°16' E 004°16'1 1.2
2018-Feb-14 02:31N 51°16' E 004°17'0 0.0
2018-Feb-14 02:00N 51°16' E 004°17'0 0.0
2018-Feb-14 01:30N 51°16' E 004°17'2 3.3
2018-Feb-14 01:01N 51°17' E 004°19'4 8.9
2018-Feb-14 00:30N 51°21' E 004°16'510.3
2018-Feb-14 00:01N 51°22' E 004°08'613.0
2018-Feb-13 23:30N 51°26' E 003°60'815.6
2018-Feb-13 23:00N 51°21' E 003°51'612.5
2018-Feb-13 22:30N 51°24' E 003°43'611.1
2018-Feb-13 22:00N 51°25' E 003°34'612.8
2018-Feb-13 21:30N 51°24' E 003°24'815.8
2018-Feb-13 21:00N 51°24' E 003°11'714.2
2018-Feb-13 20:30N 51°25' E 003°00'714.8
2018-Feb-13 20:00N 51°32' E 003°06'815.4
2018-Feb-13 19:30N 51°39' E 003°11'612.0
2018-Feb-13 19:00N 51°44' E 003°15'4 8.6
2018-Feb-13 18:29N 51°49' E 003°17'814.5
2018-Feb-13 17:57N 51°56' E 003°20'614.6
2018-Feb-13 17:31N 52°03' E 003°21'1614.1
2018-Feb-13 16:22N 52°19' E 003°25'6012.5
2018-Feb-13 11:36N 53°08' E 004°20'214.4
2018-Feb-13 11:29N 53°09' E 004°22'13512.8
2018-Feb-13 00:56N 53°51' E 007°59'715.4
2018-Feb-13 00:30N 53°48' E 008°08'917.2
2018-Feb-13 00:00N 53°42' E 008°20'816.1
2018-Feb-12 23:30N 53°37' E 008°29'4 6.9
2018-Feb-12 23:00N 53°34' E 008°33'0 0.9
2018-Feb-12 22:30N 53°35' E 008°33'0 0.3
2018-Feb-12 21:57N 53°35' E 008°33'0 0.0
2018-Feb-12 21:30N 53°35' E 008°33'0 0.0
2018-Feb-12 21:00N 53°35' E 008°33'0 0.0
2018-Feb-12 20:30N 53°35' E 008°33'0 0.0
2018-Feb-12 20:00N 53°35' E 008°33'0 0.0
2018-Feb-12 19:30N 53°35' E 008°33'0 0.0
2018-Feb-12 19:00N 53°35' E 008°33'0 0.0
2018-Feb-12 18:30N 53°35' E 008°33'0 0.0
2018-Feb-12 18:00N 53°35' E 008°33'0 0.0
2018-Feb-12 17:30N 53°35' E 008°33'0 0.0
2018-Feb-12 17:00N 53°35' E 008°33'0 0.0
2018-Feb-12 16:30N 53°35' E 008°33'0 0.0
2018-Feb-12 16:00N 53°35' E 008°33'0 0.0
2018-Feb-12 15:30N 53°35' E 008°33'0 0.0
2018-Feb-12 15:00N 53°35' E 008°33'0 0.0
2018-Feb-12 14:30N 53°35' E 008°33'0 0.0
2018-Feb-12 14:00N 53°35' E 008°33'0 0.0
2018-Feb-12 13:30N 53°35' E 008°33'0 0.0
2018-Feb-12 13:00N 53°35' E 008°33'0 0.0
2018-Feb-12 12:30N 53°35' E 008°33'0 0.0
2018-Feb-12 12:00N 53°35' E 008°33'0 0.0
2018-Feb-12 11:30N 53°35' E 008°33'0 0.0
2018-Feb-12 11:00N 53°35' E 008°33'0 0.0
2018-Feb-12 10:30N 53°35' E 008°33'0 0.0
2018-Feb-12 10:00N 53°35' E 008°33'0 0.0
2018-Feb-12 09:30N 53°35' E 008°33'0 0.0
2018-Feb-12 09:00N 53°35' E 008°33'0 0.0
2018-Feb-12 08:30N 53°35' E 008°33'0 0.0
2018-Feb-12 08:00N 53°35' E 008°33'0 0.0
2018-Feb-12 07:30N 53°35' E 008°33'0 0.0
2018-Feb-12 07:00N 53°35' E 008°33'0 0.0
2018-Feb-12 06:30N 53°35' E 008°33'0 0.0
2018-Feb-12 06:00N 53°35' E 008°33'0 0.0
2018-Feb-12 05:30N 53°35' E 008°33'0 0.0
2018-Feb-12 05:00N 53°35' E 008°33'0 0.0
2018-Feb-12 04:30N 53°35' E 008°33'0 0.0
2018-Feb-12 04:00N 53°35' E 008°33'0 0.0
2018-Feb-12 03:30N 53°35' E 008°33'0 0.0
2018-Feb-12 03:00N 53°35' E 008°33'0 0.0
2018-Feb-12 02:30N 53°35' E 008°33'0 0.0
2018-Feb-12 02:00N 53°35' E 008°33'0 0.0
2018-Feb-12 01:30N 53°35' E 008°33'0 0.0
2018-Feb-12 01:00N 53°35' E 008°33'0 0.0
2018-Feb-12 00:30N 53°35' E 008°33'0 0.8
2018-Feb-11 23:58N 53°34' E 008°33'1 1.2
2018-Feb-11 23:31N 53°34' E 008°33'2 4.4
2018-Feb-11 23:00N 53°36' E 008°31'510.7
2018-Feb-11 22:30N 53°39' E 008°24'612.2
2018-Feb-11 22:00N 53°43' E 008°16'713.4
2018-Feb-11 21:30N 53°48' E 008°08'612.0
2018-Feb-11 21:00N 53°51' E 007°60'5110.7
2018-Feb-11 16:16N 53°46' E 006°34'412.2
2018-Feb-11 15:57N 53°45' E 006°28'4212.7
2018-Feb-11 12:39N 53°32' E 005°20'213.8
2018-Feb-11 12:30N 53°31' E 005°17'713.7
2018-Feb-11 12:00N 53°29' E 005°06'913.8
2018-Feb-11 11:23N 53°26' E 004°53'1512.1
2018-Feb-11 10:09N 53°16' E 004°35'212.0
2018-Feb-11 10:00N 53°14' E 004°33'612.1
2018-Feb-11 09:31N 53°09' E 004°29'612.2
2018-Feb-11 09:00N 53°03' E 004°24'612.1
2018-Feb-11 08:31N 52°58' E 004°19'815.3
2018-Feb-11 08:00N 52°51' E 004°15'816.5
2018-Feb-11 07:30N 52°44' E 004°08'715.0
2018-Feb-11 07:00N 52°36' E 004°06'610.7
2018-Feb-11 06:29N 52°32' E 004°11'511.4
2018-Feb-11 06:00N 52°30' E 004°20'4 7.3
2018-Feb-11 05:31N 52°29' E 004°25'  
Track history (hours):
 
Tides and Currents Weather Stations Pressure Air Temp Water Temp Dewpoint Dewpoint Depression Visibility Wind Speed Wind Dir Waves Ship Positions

Cattleya Ace

Last reported at 2018-Feb-21 05:30 UTC. Time now 2018-Feb-21 05:56 UTC.
Position N 38°06' W 009°56'.

Length 199 m; draft 9.5 m.

Type: Cargo ship. MMSI: 319885000.

Date/timePositionNaut miles runAvg speedWind from/ knotsBaromVisibWave heightAir tempDewpointWater temp
2018-Feb-21 05:30N 38°06' W 009°56'714.9
2018-Feb-21 05:00N 38°13' W 009°59'815.1
2018-Feb-21 04:31N 38°20' W 010°01'815.2
2018-Feb-21 04:00N 38°28' W 010°03'815.2
2018-Feb-21 03:30N 38°35' W 010°05'714.7
2018-Feb-21 03:00N 38°42' W 010°07'714.8
2018-Feb-21 02:31N 38°50' W 010°07'714.6
2018-Feb-21 02:00N 38°57' W 010°07'714.8
2018-Feb-21 01:30N 39°05' W 010°07'714.8
2018-Feb-21 01:00N 39°12' W 010°07'714.8
2018-Feb-21 00:30N 39°19' W 010°07'714.5
2018-Feb-21 00:00N 39°27' W 010°07'714.4
2018-Feb-20 23:31N 39°34' W 010°07'714.6
2018-Feb-20 23:00N 39°41' W 010°07'714.5
2018-Feb-20 22:30N 39°48' W 010°08'714.6
2018-Feb-20 22:01N 39°56' W 010°08'714.9
2018-Feb-20 21:31N 40°03' W 010°07'714.7
2018-Feb-20 21:00N 40°11' W 010°07'28011.5
2018-Feb-19 20:38N 43°51' W 006°14'215.6
2018-Feb-19 20:29N 43°51' W 006°11'815.8
2018-Feb-19 20:00N 43°50' W 005°60'815.6
2018-Feb-19 19:30N 43°50' W 005°49'815.6
2018-Feb-19 19:00N 43°48' W 005°39'815.6
2018-Feb-19 18:30N 43°47' W 005°28'815.6
2018-Feb-19 18:00N 43°45' W 005°18'815.5
2018-Feb-19 17:30N 43°44' W 005°07'815.4
2018-Feb-19 17:00N 43°42' W 004°56'5314.5
2018-Feb-19 13:20N 43°28' W 003°46'3 0.1
2018-Feb-18 09:13N 43°31' W 003°45'2 9.1
2018-Feb-18 09:00N 43°33' W 003°46'5 9.1
2018-Feb-18 08:30N 43°37' W 003°49'611.3
2018-Feb-18 08:00N 43°42' W 003°51'22714.7
2018-Feb-17 16:30N 47°17' W 005°37'1314.5
2018-Feb-17 15:36N 47°30' W 005°42'314.1
2018-Feb-17 15:22N 47°33' W 005°43'2613.5
2018-Feb-17 13:25N 47°58' W 005°56'1113.8
2018-Feb-17 12:36N 48°08' W 006°01'814.3
2018-Feb-17 12:05N 48°16' W 006°04'414.4
2018-Feb-17 11:50N 48°19' W 006°05'12014.7
2018-Feb-17 03:40N 49°40' W 003°48'715.9
2018-Feb-17 03:12N 49°43' W 003°38'316.4
2018-Feb-17 03:00N 49°45' W 003°34'817.0
2018-Feb-17 02:31N 49°49' W 003°23'917.6
2018-Feb-17 02:01N 49°54' W 003°11'917.9
2018-Feb-17 01:31N 49°58' W 002°59'917.9
2018-Feb-17 01:00N 50°00' W 002°45'917.5
2018-Feb-17 00:30N 50°03' W 002°32'1916.2
2018-Feb-16 23:20N 50°10' W 002°05'515.0
2018-Feb-16 23:00N 50°12' W 001°58'714.4
2018-Feb-16 22:30N 50°16' W 001°48'713.9
2018-Feb-16 22:00N 50°19' W 001°39'713.5
2018-Feb-16 21:30N 50°22' W 001°29'713.1
2018-Feb-16 20:58N 50°25' W 001°19'612.8
2018-Feb-16 20:30N 50°28' W 001°11'612.4
2018-Feb-16 20:00N 50°31' W 001°03'612.8
2018-Feb-16 19:30N 50°37' W 000°57'510.4
2018-Feb-16 19:00N 50°42' W 000°57'714.4
2018-Feb-16 18:30N 50°45' W 001°07'815.2
2018-Feb-16 18:01N 50°47' W 001°19'4 8.0
2018-Feb-16 17:30N 50°51' W 001°20'3 6.9
2018-Feb-16 17:01N 50°53' W 001°24'0 0.5
2018-Feb-16 16:29N 50°53' W 001°24'0 0.0
2018-Feb-16 15:59N 50°53' W 001°24'0 0.0
2018-Feb-16 15:29N 50°53' W 001°24'0 0.0
2018-Feb-16 14:59N 50°53' W 001°24'0 0.0
2018-Feb-16 14:29N 50°53' W 001°24'0 0.0
2018-Feb-16 13:59N 50°53' W 001°24'0 0.0
2018-Feb-16 13:29N 50°53' W 001°24'0 0.0
2018-Feb-16 12:56N 50°53' W 001°24'0 0.0
2018-Feb-16 12:29N 50°53' W 001°24'0 0.0
2018-Feb-16 11:59N 50°53' W 001°24'0 0.0
2018-Feb-16 11:29N 50°53' W 001°24'0 0.0
2018-Feb-16 10:59N 50°53' W 001°24'0 0.0
2018-Feb-16 10:29N 50°53' W 001°24'0 0.0
2018-Feb-16 09:59N 50°53' W 001°24'0 0.0
2018-Feb-16 09:29N 50°53' W 001°24'0 0.0
2018-Feb-16 08:59N 50°53' W 001°24'0 0.0
2018-Feb-16 08:29N 50°53' W 001°24'0 0.0
2018-Feb-16 07:59N 50°53' W 001°24'0 0.0
2018-Feb-16 07:29N 50°53' W 001°24'0 0.0
2018-Feb-16 06:59N 50°53' W 001°24'0 0.0
2018-Feb-16 06:29N 50°53' W 001°24'0 0.0
2018-Feb-16 05:59N 50°53' W 001°24'0 0.0
2018-Feb-16 05:29N 50°53' W 001°24'0 0.0
2018-Feb-16 04:59N 50°53' W 001°24'0 0.6
2018-Feb-16 04:30N 50°53' W 001°24'3 5.5
2018-Feb-16 04:01N 50°51' W 001°21'4 7.5
2018-Feb-16 03:31N 50°48' W 001°18'4 8.5
2018-Feb-16 03:01N 50°46' W 001°12'714.2
2018-Feb-16 02:31N 50°43' W 001°02'611.1
2018-Feb-16 02:00N 50°40' W 000°55'3 5.5
2018-Feb-16 01:30N 50°37' W 000°54'4 7.4
2018-Feb-16 01:00N 50°34' W 000°51'1 2.4
2018-Feb-16 00:30N 50°35' W 000°49'3 5.7
2018-Feb-16 00:00N 50°35' W 000°44'4 7.4
2018-Feb-15 23:30N 50°35' W 000°39'3 6.6
2018-Feb-15 23:00N 50°35' W 000°33'4 7.8
2018-Feb-15 22:31N 50°34' W 000°27'3 6.6
2018-Feb-15 22:00N 50°34' W 000°22'4 7.7
2018-Feb-15 21:30N 50°34' W 000°16'4 9.1
2018-Feb-15 21:00N 50°33' W 000°09'4 8.5
2018-Feb-15 20:30N 50°33' W 000°02'4 8.7
2018-Feb-15 20:00N 50°34' E 000°04'4 8.2
2018-Feb-15 19:30N 50°35' E 000°10'4 8.6
2018-Feb-15 19:00N 50°35' E 000°17'4 9.0
2018-Feb-15 18:31N 50°37' E 000°24'4 8.9
2018-Feb-15 18:00N 50°38' E 000°31'5 9.3
2018-Feb-15 17:30N 50°39' E 000°38'4 7.4
2018-Feb-15 17:00N 50°41' E 000°43'5 9.4
2018-Feb-15 16:30N 50°43' E 000°49'4 7.4
2018-Feb-15 16:00N 50°45' E 000°54'4 8.9
2018-Feb-15 15:30N 50°48' E 000°60'5 9.6
2018-Feb-15 15:00N 50°50' E 001°06'5 9.8
2018-Feb-15 14:30N 50°53' E 001°13'611.7
2018-Feb-15 14:00N 50°56' E 001°20'611.2
2018-Feb-15 13:30N 51°01' E 001°26'510.4
2018-Feb-15 13:00N 51°04' E 001°33'5 9.8
2018-Feb-15 12:31N 51°07' E 001°39'510.2
2018-Feb-15 12:00N 51°11' E 001°44'510.1
2018-Feb-15 11:30N 51°15' E 001°49'611.1
2018-Feb-15 11:00N 51°19' E 001°54'612.0
2018-Feb-15 10:30N 51°24' E 001°59'611.9
2018-Feb-15 10:01N 51°23' E 002°09'713.0
2018-Feb-15 09:30N 51°21' E 002°19'816.2
2018-Feb-15 09:00N 51°23' E 002°31'713.9
2018-Feb-15 08:29N 51°23' E 002°43'612.9
2018-Feb-15 08:00N 51°23' E 002°53'815.8
2018-Feb-15 07:30N 51°24' E 003°05'816.2
2018-Feb-15 07:00N 51°25' E 003°18'816.5
2018-Feb-15 06:30N 51°25' E 003°31'510.1
2018-Feb-15 06:00N 51°27' E 003°39'714.6
2018-Feb-15 05:30N 51°21' E 003°47'714.0
2018-Feb-15 05:00N 51°24' E 003°57'4 8.4
2018-Feb-15 04:30N 51°23' E 004°03'611.9
2018-Feb-15 04:01N 51°23' E 004°13'510.6
2018-Feb-15 03:30N 51°18' E 004°16'2 3.3
2018-Feb-15 03:00N 51°17' E 004°15'0 0.0
2018-Feb-15 02:30N 51°17' E 004°15'0 0.8
2018-Feb-15 02:00N 51°16' E 004°15'1 1.2
2018-Feb-15 01:29N 51°16' E 004°14'0 0.0
2018-Feb-15 00:59N 51°16' E 004°14'0 0.0
2018-Feb-15 00:29N 51°16' E 004°14'0 0.0
2018-Feb-14 23:59N 51°16' E 004°14'0 0.0
2018-Feb-14 23:29N 51°16' E 004°14'0 0.0
2018-Feb-14 22:59N 51°16' E 004°14'0 0.0
2018-Feb-14 22:29N 51°16' E 004°14'0 0.0
2018-Feb-14 21:59N 51°16' E 004°14'0 0.0
2018-Feb-14 21:26N 51°16' E 004°14'0 0.0
2018-Feb-14 20:59N 51°16' E 004°14'0 0.0
2018-Feb-14 20:29N 51°16' E 004°14'0 0.0
2018-Feb-14 19:56N 51°16' E 004°14'0 0.0
2018-Feb-14 19:29N 51°16' E 004°14'0 0.0
2018-Feb-14 18:59N 51°16' E 004°14'0 0.0
2018-Feb-14 18:29N 51°16' E 004°14'0 0.0
2018-Feb-14 17:59N 51°16' E 004°14'0 0.0
2018-Feb-14 17:29N 51°16' E 004°14'0 0.0
2018-Feb-14 16:59N 51°16' E 004°14'0 0.0
2018-Feb-14 16:29N 51°16' E 004°14'0 0.0
2018-Feb-14 15:59N 51°16' E 004°14'0 0.0
2018-Feb-14 15:26N 51°16' E 004°14'0 0.0
2018-Feb-14 14:59N 51°16' E 004°14'0 0.0
2018-Feb-14 14:29N 51°16' E 004°14'0 0.0
2018-Feb-14 13:59N 51°16' E 004°14'0 0.0
2018-Feb-14 13:29N 51°16' E 004°14'0 0.0
2018-Feb-14 12:59N 51°16' E 004°14'0 0.0
2018-Feb-14 12:29N 51°16' E 004°14'0 0.0
2018-Feb-14 11:59N 51°16' E 004°14'0 0.0
2018-Feb-14 11:29N 51°16' E 004°14'0 0.0
2018-Feb-14 10:59N 51°16' E 004°14'0 0.0
2018-Feb-14 10:29N 51°16' E 004°14'0 0.0
2018-Feb-14 09:59N 51°16' E 004°14'0 0.0
2018-Feb-14 09:29N 51°16' E 004°14'0 0.0
2018-Feb-14 08:56N 51°16' E 004°14'0 0.0
2018-Feb-14 08:29N 51°16' E 004°14'0 0.0
2018-Feb-14 07:59N 51°16' E 004°14'0 0.0
2018-Feb-14 07:29N 51°16' E 004°14'0 0.0
2018-Feb-14 06:59N 51°16' E 004°14'0 0.0
2018-Feb-14 06:29N 51°16' E 004°14'0 0.0
2018-Feb-14 05:59N 51°16' E 004°14'0 0.0
2018-Feb-14 05:29N 51°16' E 004°14'0 0.0
2018-Feb-14 04:59N 51°16' E 004°14'0 0.0
2018-Feb-14 04:29N 51°16' E 004°14'0 0.0
2018-Feb-14 03:59N 51°16' E 004°14'0 0.0
2018-Feb-14 03:29N 51°16' E 004°14'1 2.0
2018-Feb-14 03:00N 51°16' E 004°16'1 1.2
2018-Feb-14 02:31N 51°16' E 004°17'0 0.0
2018-Feb-14 02:00N 51°16' E 004°17'0 0.0
2018-Feb-14 01:30N 51°16' E 004°17'2 3.3
2018-Feb-14 01:01N 51°17' E 004°19'4 8.9
2018-Feb-14 00:30N 51°21' E 004°16'510.3
2018-Feb-14 00:01N 51°22' E 004°08'613.0
2018-Feb-13 23:30N 51°26' E 003°60'815.6
2018-Feb-13 23:00N 51°21' E 003°51'612.5
2018-Feb-13 22:30N 51°24' E 003°43'611.1
2018-Feb-13 22:00N 51°25' E 003°34'612.8
2018-Feb-13 21:30N 51°24' E 003°24'815.8
2018-Feb-13 21:00N 51°24' E 003°11'714.2
2018-Feb-13 20:30N 51°25' E 003°00'714.8
2018-Feb-13 20:00N 51°32' E 003°06'815.4
2018-Feb-13 19:30N 51°39' E 003°11'612.0
2018-Feb-13 19:00N 51°44' E 003°15'4 8.6
2018-Feb-13 18:29N 51°49' E 003°17'814.5
2018-Feb-13 17:57N 51°56' E 003°20'614.6
2018-Feb-13 17:31N 52°03' E 003°21'1614.1
2018-Feb-13 16:22N 52°19' E 003°25'6012.5
2018-Feb-13 11:36N 53°08' E 004°20'214.4
2018-Feb-13 11:29N 53°09' E 004°22'13512.8
2018-Feb-13 00:56N 53°51' E 007°59'715.4
2018-Feb-13 00:30N 53°48' E 008°08'917.2
2018-Feb-13 00:00N 53°42' E 008°20'816.1
2018-Feb-12 23:30N 53°37' E 008°29'4 6.9
2018-Feb-12 23:00N 53°34' E 008°33'0 0.9
2018-Feb-12 22:30N 53°35' E 008°33'0 0.3
2018-Feb-12 21:57N 53°35' E 008°33'0 0.0
2018-Feb-12 21:30N 53°35' E 008°33'0 0.0
2018-Feb-12 21:00N 53°35' E 008°33'0 0.0
2018-Feb-12 20:30N 53°35' E 008°33'0 0.0
2018-Feb-12 20:00N 53°35' E 008°33'0 0.0
2018-Feb-12 19:30N 53°35' E 008°33'0 0.0
2018-Feb-12 19:00N 53°35' E 008°33'0 0.0
2018-Feb-12 18:30N 53°35' E 008°33'0 0.0
2018-Feb-12 18:00N 53°35' E 008°33'0 0.0
2018-Feb-12 17:30N 53°35' E 008°33'0 0.0
2018-Feb-12 17:00N 53°35' E 008°33'0 0.0
2018-Feb-12 16:30N 53°35' E 008°33'0 0.0
2018-Feb-12 16:00N 53°35' E 008°33'0 0.0
2018-Feb-12 15:30N 53°35' E 008°33'0 0.0
2018-Feb-12 15:00N 53°35' E 008°33'0 0.0
2018-Feb-12 14:30N 53°35' E 008°33'0 0.0
2018-Feb-12 14:00N 53°35' E 008°33'0 0.0
2018-Feb-12 13:30N 53°35' E 008°33'0 0.0
2018-Feb-12 13:00N 53°35' E 008°33'0 0.0
2018-Feb-12 12:30N 53°35' E 008°33'0 0.0
2018-Feb-12 12:00N 53°35' E 008°33'0 0.0
2018-Feb-12 11:30N 53°35' E 008°33'0 0.0
2018-Feb-12 11:00N 53°35' E 008°33'0 0.0
2018-Feb-12 10:30N 53°35' E 008°33'0 0.0
2018-Feb-12 10:00N 53°35' E 008°33'0 0.0
2018-Feb-12 09:30N 53°35' E 008°33'0 0.0
2018-Feb-12 09:00N 53°35' E 008°33'0 0.0
2018-Feb-12 08:30N 53°35' E 008°33'0 0.0
2018-Feb-12 08:00N 53°35' E 008°33'0 0.0
2018-Feb-12 07:30N 53°35' E 008°33'0 0.0
2018-Feb-12 07:00N 53°35' E 008°33'0 0.0
2018-Feb-12 06:30N 53°35' E 008°33'0 0.0
2018-Feb-12 06:00N 53°35' E 008°33'0 0.0
2018-Feb-12 05:30N 53°35' E 008°33'0 0.0
2018-Feb-12 05:00N 53°35' E 008°33'0 0.0
2018-Feb-12 04:30N 53°35' E 008°33'0 0.0
2018-Feb-12 04:00N 53°35' E 008°33'0 0.0
2018-Feb-12 03:30N 53°35' E 008°33'0 0.0
2018-Feb-12 03:00N 53°35' E 008°33'0 0.0
2018-Feb-12 02:30N 53°35' E 008°33'0 0.0
2018-Feb-12 02:00N 53°35' E 008°33'0 0.0
2018-Feb-12 01:30N 53°35' E 008°33'0 0.0
2018-Feb-12 01:00N 53°35' E 008°33'0 0.0
2018-Feb-12 00:30N 53°35' E 008°33'0 0.8
2018-Feb-11 23:58N 53°34' E 008°33'1 1.2
2018-Feb-11 23:31N 53°34' E 008°33'2 4.4
2018-Feb-11 23:00N 53°36' E 008°31'510.7
2018-Feb-11 22:30N 53°39' E 008°24'612.2
2018-Feb-11 22:00N 53°43' E 008°16'713.4
2018-Feb-11 21:30N 53°48' E 008°08'612.0
2018-Feb-11 21:00N 53°51' E 007°60'5110.7
2018-Feb-11 16:16N 53°46' E 006°34'412.2
2018-Feb-11 15:57N 53°45' E 006°28'4212.7
2018-Feb-11 12:39N 53°32' E 005°20'213.8
2018-Feb-11 12:30N 53°31' E 005°17'713.7
2018-Feb-11 12:00N 53°29' E 005°06'913.8
2018-Feb-11 11:23N 53°26' E 004°53'1512.1
2018-Feb-11 10:09N 53°16' E 004°35'212.0
2018-Feb-11 10:00N 53°14' E 004°33'612.1
2018-Feb-11 09:31N 53°09' E 004°29'612.2
2018-Feb-11 09:00N 53°03' E 004°24'612.1
2018-Feb-11 08:31N 52°58' E 004°19'815.3
2018-Feb-11 08:00N 52°51' E 004°15'816.5
2018-Feb-11 07:30N 52°44' E 004°08'715.0
2018-Feb-11 07:00N 52°36' E 004°06'610.7
2018-Feb-11 06:29N 52°32' E 004°11'511.4
2018-Feb-11 06:00N 52°30' E 004°20'4 7.3
2018-Feb-11 05:31N 52°29' E 004°25'  

Dump ship's entire track history